createdAt,value
2022-08-20T00:02:24.782Z,55.93
2022-08-20T00:04:58.346Z,56.17
2022-08-20T00:07:31.824Z,56.89
2022-08-20T00:10:08.485Z,57.04
2022-08-20T00:12:46.196Z,57.11
2022-08-20T00:15:22.201Z,57.20
2022-08-20T00:17:56.361Z,57.47
2022-08-20T00:20:35.102Z,57.68
2022-08-20T00:23:10.664Z,57.79
2022-08-20T00:25:46.378Z,57.99
2022-08-20T00:28:20.099Z,58.04
2022-08-20T00:30:53.802Z,58.50
2022-08-20T00:33:27.566Z,58.36
2022-08-20T00:36:06.690Z,58.99
2022-08-20T00:38:42.611Z,58.56
2022-08-20T00:41:21.760Z,59.30
2022-08-20T00:44:08.908Z,59.21
2022-08-20T00:46:43.462Z,59.66
2022-08-20T00:49:19.847Z,59.29
2022-08-20T00:51:59.374Z,59.72
2022-08-20T00:54:40.757Z,59.86
2022-08-20T00:57:26.678Z,59.90
2022-08-20T01:00:04.750Z,60.56
2022-08-20T01:02:38.425Z,60.15
2022-08-20T01:05:12.769Z,60.50
2022-08-20T01:07:48.565Z,60.78
2022-08-20T01:10:28.687Z,61.67
2022-08-20T01:13:10.138Z,61.72
2022-08-20T01:15:49.506Z,62.34
2022-08-20T01:18:27.028Z,62.93
2022-08-20T01:21:03.897Z,63.06
2022-08-20T01:23:44.746Z,62.97
2022-08-20T01:26:24.461Z,63.42
2022-08-20T01:29:02.313Z,63.51
2022-08-20T01:31:39.088Z,63.62
2022-08-20T01:34:15.436Z,63.50
2022-08-20T01:36:53.097Z,63.56
2022-08-20T01:39:28.982Z,63.67
2022-08-20T01:42:13.078Z,64.03
2022-08-20T01:44:48.377Z,63.71
2022-08-20T01:47:28.393Z,64.22
2022-08-20T01:50:07.317Z,64.33
2022-08-20T01:52:47.335Z,64.26
2022-08-20T01:55:21.222Z,64.55
2022-08-20T01:57:57.201Z,64.87
2022-08-20T02:00:32.745Z,64.84
2022-08-20T02:03:07.926Z,65.00
2022-08-20T02:05:41.553Z,64.85
2022-08-20T02:08:15.234Z,64.96
2022-08-20T02:10:49.205Z,64.68
2022-08-20T02:13:24.796Z,64.66
2022-08-20T02:15:58.446Z,64.71
2022-08-20T02:18:32.096Z,65.09
2022-08-20T02:21:06.067Z,65.09
2022-08-20T02:23:39.668Z,65.04
2022-08-20T02:26:13.510Z,65.32
2022-08-20T02:28:50.899Z,65.55
2022-08-20T02:31:25.221Z,65.96
2022-08-20T02:34:23.090Z,65.83
2022-08-20T02:36:57.405Z,65.99
2022-08-20T02:39:31.080Z,66.67
2022-08-20T02:42:05.441Z,66.59
2022-08-20T02:44:40.827Z,66.80
2022-08-20T02:47:14.346Z,66.47
2022-08-20T02:49:47.905Z,66.97
2022-08-20T02:52:21.791Z,67.12
2022-08-20T02:54:55.263Z,67.00
2022-08-20T02:57:30.363Z,66.91
2022-08-20T03:00:06.674Z,66.59
2022-08-20T03:02:40.284Z,66.65
2022-08-20T03:05:15.970Z,66.67
2022-08-20T03:07:53.678Z,66.61
2022-08-20T03:10:34.759Z,66.54
2022-08-20T03:13:12.430Z,66.79
2022-08-20T03:15:49.897Z,66.50
2022-08-20T03:18:25.097Z,66.31
2022-08-20T03:20:59.016Z,66.78
2022-08-20T03:23:32.819Z,66.50
2022-08-20T03:26:10.666Z,66.68
2022-08-20T03:28:47.224Z,66.64
2022-08-20T03:31:27.308Z,66.85
2022-08-20T03:34:00.955Z,66.64
2022-08-20T03:36:34.569Z,66.86
2022-08-20T03:39:11.832Z,66.70
2022-08-20T03:41:45.471Z,66.87
2022-08-20T03:44:19.098Z,66.75
2022-08-20T03:46:54.560Z,66.83
2022-08-20T03:49:28.108Z,67.10
2022-08-20T03:52:02.755Z,66.76
2022-08-20T03:54:36.335Z,66.85
2022-08-20T03:57:14.651Z,67.07
2022-08-20T03:59:51.944Z,66.86
2022-08-20T04:02:34.576Z,66.76
2022-08-20T04:05:08.975Z,66.88
2022-08-20T04:07:43.211Z,67.08
2022-08-20T04:10:16.756Z,66.81
2022-08-20T04:12:53.130Z,66.69
2022-08-20T04:15:26.894Z,66.77
2022-08-20T04:18:03.096Z,66.77
2022-08-20T04:20:38.067Z,67.02
2022-08-20T04:23:12.181Z,66.80
2022-08-20T04:25:46.978Z,66.92
2022-08-20T04:28:25.001Z,66.78
2022-08-20T04:31:00.431Z,66.91
2022-08-20T04:33:35.633Z,66.52
2022-08-20T04:36:09.302Z,66.88
2022-08-20T04:38:49.657Z,66.72
2022-08-20T04:41:25.291Z,66.49
2022-08-20T04:43:59.708Z,66.48
2022-08-20T04:46:33.325Z,66.49
2022-08-20T04:49:08.962Z,66.37
2022-08-20T04:51:42.734Z,65.96
2022-08-20T04:54:16.323Z,65.99
2022-08-20T04:56:49.976Z,65.84
2022-08-20T04:59:23.661Z,66.07
2022-08-20T05:01:57.360Z,65.99
2022-08-20T05:04:32.390Z,65.74
2022-08-20T05:07:06.169Z,66.04
2022-08-20T05:09:43.775Z,66.06
2022-08-20T05:12:18.288Z,65.53
2022-08-20T05:14:51.992Z,65.58
2022-08-20T05:17:25.690Z,65.80
2022-08-20T05:20:00.972Z,66.16
2022-08-20T05:22:34.487Z,66.10
2022-08-20T05:25:12.056Z,66.08
2022-08-20T05:27:47.823Z,65.77
2022-08-20T05:30:21.640Z,65.93
2022-08-20T05:32:56.080Z,65.94
2022-08-20T05:35:31.490Z,65.77
2022-08-20T05:38:05.167Z,65.96
2022-08-20T05:40:40.003Z,65.80
2022-08-20T05:43:13.659Z,66.04
2022-08-20T05:45:56.495Z,65.79
2022-08-20T05:48:30.414Z,65.90
2022-08-20T05:51:05.644Z,65.91
2022-08-20T05:53:39.153Z,65.93
2022-08-20T05:56:12.848Z,65.86
2022-08-20T05:58:46.550Z,66.05
2022-08-20T06:01:20.212Z,66.03
2022-08-20T06:04:11.373Z,65.81
2022-08-20T06:06:47.381Z,66.00
2022-08-20T06:09:30.936Z,66.17
2022-08-20T06:12:09.112Z,65.71
2022-08-20T06:14:42.709Z,65.75
2022-08-20T06:17:18.712Z,65.63
2022-08-20T06:19:56.444Z,65.50
2022-08-20T06:22:31.716Z,65.45
2022-08-20T06:25:06.774Z,65.56
2022-08-20T06:27:41.308Z,65.34
2022-08-20T06:30:21.812Z,64.97
2022-08-20T06:32:56.539Z,64.49
2022-08-20T06:35:30.173Z,63.93
2022-08-20T06:38:10.751Z,63.37
2022-08-20T06:40:44.318Z,63.20
2022-08-20T06:43:18.016Z,62.59
2022-08-20T06:45:57.833Z,62.04
2022-08-20T06:48:31.374Z,62.04
2022-08-20T06:51:06.723Z,61.12
2022-08-20T06:53:41.871Z,60.68
2022-08-20T06:56:15.537Z,59.47
2022-08-20T06:58:49.698Z,59.00
2022-08-20T07:01:23.451Z,58.45
2022-08-20T07:03:59.850Z,58.33
2022-08-20T07:06:33.449Z,57.52
2022-08-20T07:09:08.454Z,57.51
2022-08-20T07:11:42.373Z,57.32
2022-08-20T07:14:16.290Z,57.16
2022-08-20T07:16:50.697Z,57.19
2022-08-20T07:19:24.597Z,57.11
2022-08-20T07:21:58.185Z,56.89
2022-08-20T07:24:34.969Z,56.72
2022-08-20T07:27:11.392Z,56.19
2022-08-20T07:30:02.426Z,55.88
2022-08-20T07:32:37.144Z,55.39
2022-08-20T07:35:17.144Z,55.16
2022-08-20T07:37:54.651Z,55.22
2022-08-20T07:40:33.317Z,55.03
2022-08-20T07:43:06.989Z,54.38
2022-08-20T07:45:48.076Z,54.42
2022-08-20T07:48:32.279Z,53.98
2022-08-20T07:51:07.454Z,53.39
2022-08-20T07:53:42.203Z,53.46
2022-08-20T07:56:20.218Z,52.33
2022-08-20T07:58:57.047Z,51.76
2022-08-20T08:01:33.128Z,50.92
2022-08-20T08:04:06.962Z,50.16
2022-08-20T08:06:40.762Z,49.18
2022-08-20T08:09:16.008Z,49.16
2022-08-20T08:11:51.933Z,47.40
2022-08-20T08:14:29.592Z,46.92
2022-08-20T08:17:06.040Z,46.63
2022-08-20T08:19:43.945Z,46.81
2022-08-20T08:22:19.961Z,45.84
2022-08-20T08:24:57.145Z,45.72
2022-08-20T08:27:34.321Z,44.24
2022-08-20T08:30:10.295Z,43.51
2022-08-20T08:33:04.096Z,41.74
2022-08-20T08:35:39.231Z,39.26
2022-08-20T08:38:17.471Z,37.52
2022-08-20T08:41:00.289Z,35.52
2022-08-20T08:43:35.357Z,33.57
2022-08-20T08:46:12.926Z,32.08
2022-08-20T08:48:49.487Z,31.32
2022-08-20T08:51:29.600Z,29.33
2022-08-20T08:54:07.153Z,28.63
2022-08-20T08:56:41.643Z,27.33
2022-08-20T08:59:16.723Z,25.98
2022-08-20T09:01:56.950Z,25.54
2022-08-20T09:04:33.824Z,24.93
2022-08-20T09:07:15.536Z,24.66
2022-08-20T09:09:49.096Z,24.20
2022-08-20T09:12:27.992Z,24.05
2022-08-20T09:15:02.950Z,23.49
2022-08-20T09:17:36.473Z,23.55
2022-08-20T09:20:11.619Z,23.83
2022-08-20T09:22:45.335Z,23.97
2022-08-20T09:25:19.970Z,24.14
2022-08-20T09:27:53.811Z,24.35
2022-08-20T09:30:29.854Z,24.36
2022-08-20T09:33:07.559Z,23.96
2022-08-20T09:35:41.611Z,23.28
2022-08-20T09:38:15.214Z,23.12
2022-08-20T09:40:48.925Z,22.79
2022-08-20T09:43:22.679Z,23.00
2022-08-20T09:45:57.691Z,22.40
2022-08-20T09:48:32.251Z,22.48
2022-08-20T09:51:06.464Z,21.82
2022-08-20T09:53:40.173Z,21.65
2022-08-20T09:56:13.928Z,21.00
2022-08-20T09:58:51.204Z,20.22
2022-08-20T10:01:26.252Z,20.22
2022-08-20T10:03:59.926Z,19.96
2022-08-20T10:06:37.694Z,19.06
2022-08-20T10:09:11.490Z,18.82
2022-08-20T10:11:45.108Z,18.80
2022-08-20T10:14:18.739Z,17.91
2022-08-20T10:16:59.870Z,17.87
2022-08-20T10:19:34.171Z,18.20
2022-08-20T10:22:07.825Z,17.96
2022-08-20T10:24:41.516Z,16.81
2022-08-20T10:27:15.135Z,16.65
2022-08-20T10:29:48.878Z,17.04
2022-08-20T10:32:23.962Z,16.76
2022-08-20T10:34:57.556Z,16.52
2022-08-20T10:37:31.274Z,16.12
2022-08-20T10:40:06.399Z,15.93
2022-08-20T10:42:42.631Z,16.47
2022-08-20T10:45:17.509Z,17.33
2022-08-20T10:47:52.653Z,18.31
2022-08-20T10:50:30.231Z,18.90
2022-08-20T10:53:04.521Z,19.64
2022-08-20T10:55:38.217Z,20.10
2022-08-20T10:58:13.397Z,20.51
2022-08-20T11:00:47.526Z,21.19
2022-08-20T11:03:22.778Z,20.73
2022-08-20T11:05:56.302Z,20.68
2022-08-20T11:08:34.088Z,20.22
2022-08-20T11:11:09.509Z,20.30
2022-08-20T11:13:43.058Z,20.52
2022-08-20T11:16:16.662Z,21.02
2022-08-20T11:18:51.755Z,21.05
2022-08-20T11:21:25.272Z,21.56
2022-08-20T11:24:02.701Z,21.60
2022-08-20T11:26:36.764Z,22.02
2022-08-20T11:29:10.420Z,22.30
2022-08-20T11:31:44.114Z,22.75
2022-08-20T11:34:19.344Z,23.55
2022-08-20T11:36:54.210Z,24.29
2022-08-20T11:39:28.172Z,25.19
2022-08-20T11:42:02.037Z,25.52
2022-08-20T11:44:35.837Z,26.47
2022-08-20T11:47:10.140Z,26.71
2022-08-20T11:49:45.398Z,27.21
2022-08-20T11:52:19.029Z,27.69
2022-08-20T11:54:54.969Z,27.00
2022-08-20T11:57:30.893Z,27.25
2022-08-20T12:00:09.922Z,27.76
2022-08-20T12:02:44.057Z,28.43
2022-08-20T12:05:20.127Z,28.48
2022-08-20T12:07:53.756Z,28.79
2022-08-20T12:10:28.311Z,29.52
2022-08-20T12:13:03.435Z,29.60
2022-08-20T12:15:38.918Z,29.46
2022-08-20T12:18:12.623Z,29.66
2022-08-20T12:20:47.695Z,29.72
2022-08-20T12:23:24.435Z,29.54
2022-08-20T12:25:59.195Z,30.02
2022-08-20T12:28:33.364Z,30.00
2022-08-20T12:31:07.234Z,29.83
2022-08-20T12:33:40.799Z,29.77
2022-08-20T12:36:15.795Z,29.04
2022-08-20T12:38:49.324Z,29.49
2022-08-20T12:41:22.946Z,29.43
2022-08-20T12:43:56.437Z,29.75
2022-08-20T12:46:30.073Z,31.00
2022-08-20T12:49:03.642Z,30.83
2022-08-20T12:51:38.626Z,30.58
2022-08-20T12:54:12.155Z,31.00
2022-08-20T12:56:46.331Z,30.33
2022-08-20T12:59:23.016Z,30.63
2022-08-20T13:01:59.355Z,30.81
2022-08-20T13:04:48.193Z,30.91
2022-08-20T13:07:23.222Z,30.87
2022-08-20T13:09:57.245Z,30.85
2022-08-20T13:12:31.259Z,31.44
2022-08-20T13:15:05.243Z,31.98
2022-08-20T13:17:39.699Z,32.06
2022-08-20T13:20:16.313Z,31.88
2022-08-20T13:22:51.244Z,31.50
2022-08-20T13:25:25.748Z,32.25
2022-08-20T13:28:05.128Z,32.01
2022-08-20T13:30:41.086Z,33.20
2022-08-20T13:33:14.853Z,33.21
2022-08-20T13:35:48.478Z,32.99
2022-08-20T13:38:24.405Z,33.26
2022-08-20T13:40:58.731Z,33.22
2022-08-20T13:43:32.355Z,34.17
2022-08-20T13:46:06.679Z,34.14
2022-08-20T13:48:40.316Z,34.46
2022-08-20T13:51:13.878Z,34.75
2022-08-20T13:53:54.535Z,35.04
2022-08-20T13:56:28.112Z,35.42
2022-08-20T13:59:01.758Z,35.58
2022-08-20T14:01:35.478Z,34.89
2022-08-20T14:04:09.161Z,34.59
2022-08-20T14:06:42.748Z,34.64
2022-08-20T14:09:17.806Z,35.27
2022-08-20T14:11:51.437Z,35.00
2022-08-20T14:14:25.063Z,35.62
2022-08-20T14:16:58.718Z,37.39
2022-08-20T14:19:32.295Z,39.37
2022-08-20T14:22:06.269Z,40.34
2022-08-20T14:24:41.323Z,41.17
2022-08-20T14:27:16.777Z,41.54
2022-08-20T14:29:51.845Z,42.39
2022-08-20T14:32:25.513Z,43.40
2022-08-20T14:34:59.509Z,44.34
2022-08-20T14:37:35.080Z,45.05
2022-08-20T14:40:13.244Z,45.92
2022-08-20T14:42:51.607Z,46.31
2022-08-20T14:45:25.721Z,46.91
2022-08-20T14:47:59.902Z,47.46
2022-08-20T14:50:36.239Z,47.93
2022-08-20T14:53:09.875Z,47.92
2022-08-20T14:55:44.892Z,48.38
2022-08-20T14:58:18.629Z,48.88
2022-08-20T15:00:52.355Z,49.18
2022-08-20T15:03:30.640Z,49.66
2022-08-20T15:06:04.374Z,49.79
2022-08-20T15:08:40.580Z,50.02
2022-08-20T15:11:15.720Z,50.00
2022-08-20T15:13:49.357Z,50.30
2022-08-20T15:16:22.873Z,50.72
2022-08-20T15:18:59.217Z,50.20
2022-08-20T15:21:45.044Z,50.41
2022-08-20T15:24:19.742Z,50.30
2022-08-20T15:26:54.942Z,50.35
2022-08-20T15:29:28.650Z,50.49
2022-08-20T15:32:02.241Z,50.84
2022-08-20T15:34:36.201Z,51.26
2022-08-20T15:37:11.098Z,51.21
2022-08-20T15:39:46.418Z,51.30
2022-08-20T15:42:22.795Z,51.16
2022-08-20T15:44:56.326Z,51.11
2022-08-20T15:47:32.936Z,51.27
2022-08-20T15:50:14.227Z,51.56
2022-08-20T15:52:47.969Z,51.61
2022-08-20T15:55:22.447Z,52.01
2022-08-20T15:58:01.446Z,51.87
2022-08-20T16:00:43.182Z,51.82
2022-08-20T16:03:35.435Z,52.05
2022-08-20T16:06:15.454Z,51.86
2022-08-20T16:09:03.896Z,51.96
2022-08-20T16:11:47.856Z,51.93
2022-08-20T16:14:26.834Z,51.86
2022-08-20T16:17:07.633Z,52.04
2022-08-20T16:19:52.503Z,52.17
2022-08-20T16:22:30.815Z,52.68
2022-08-20T16:25:05.005Z,52.60
2022-08-20T16:27:49.270Z,52.74
2022-08-20T16:30:35.595Z,52.85
2022-08-20T16:33:12.313Z,52.89
2022-08-20T16:35:52.346Z,52.95
2022-08-20T16:38:47.817Z,53.03
2022-08-20T16:41:29.363Z,53.29
2022-08-20T16:44:08.084Z,53.32
2022-08-20T16:46:50.209Z,53.80
2022-08-20T16:49:27.504Z,53.62
2022-08-20T16:52:01.314Z,53.96
2022-08-20T16:54:34.993Z,53.94
2022-08-20T16:57:08.697Z,54.21
2022-08-20T17:00:10.119Z,54.16
2022-08-20T17:02:54.591Z,54.61
2022-08-20T17:05:30.829Z,54.83
2022-08-20T17:08:07.224Z,54.93
2022-08-20T17:10:56.217Z,55.01
2022-08-20T17:13:32.127Z,55.36
2022-08-20T17:16:07.981Z,55.49
2022-08-20T17:18:45.101Z,55.92
2022-08-20T17:21:23.570Z,56.19
2022-08-20T17:24:00.475Z,56.56
2022-08-20T17:26:38.451Z,56.63
2022-08-20T17:29:16.586Z,56.64
2022-08-20T17:31:52.537Z,57.00
2022-08-20T17:34:29.902Z,57.09
2022-08-20T17:37:09.223Z,57.31
2022-08-20T17:39:48.118Z,58.01
2022-08-20T17:42:25.617Z,57.93
2022-08-20T17:45:06.951Z,58.19
2022-08-20T17:47:41.457Z,58.07
2022-08-20T17:50:21.207Z,58.53
2022-08-20T17:52:58.357Z,58.63
2022-08-20T17:55:34.989Z,58.85
2022-08-20T17:58:13.634Z,58.84
2022-08-20T18:00:47.433Z,59.06
2022-08-20T18:03:23.648Z,59.42
2022-08-20T18:06:03.945Z,59.61
2022-08-20T18:08:43.661Z,59.78
2022-08-20T18:11:25.242Z,60.07
2022-08-20T18:14:18.371Z,60.24
2022-08-20T18:17:06.317Z,60.38
2022-08-20T18:20:04.301Z,60.49
2022-08-20T18:22:47.634Z,60.58
2022-08-20T18:25:33.661Z,60.76
2022-08-20T18:28:16.076Z,60.88
2022-08-20T18:30:53.119Z,60.21
2022-08-20T18:33:33.581Z,59.54
2022-08-20T18:36:12.358Z,59.93
2022-08-20T18:39:00.259Z,59.95
2022-08-20T18:41:36.196Z,60.11
2022-08-20T18:44:14.264Z,60.06
2022-08-20T18:46:56.418Z,60.09
2022-08-20T18:49:32.471Z,59.99
2022-08-20T18:52:15.159Z,60.15
2022-08-20T18:54:54.939Z,59.97
2022-08-20T18:57:40.652Z,60.12
2022-08-20T19:00:21.857Z,60.10
2022-08-20T19:02:58.714Z,60.34
2022-08-20T19:05:44.257Z,60.77
2022-08-20T19:08:21.467Z,60.65
2022-08-20T19:11:06.166Z,60.44
2022-08-20T19:14:05.135Z,60.40
2022-08-20T19:16:42.139Z,60.51
2022-08-20T19:19:18.179Z,60.52
2022-08-20T19:21:53.236Z,60.50
2022-08-20T19:24:33.174Z,60.56
2022-08-20T19:27:10.362Z,60.75
2022-08-20T19:29:49.527Z,60.33
2022-08-20T19:32:28.396Z,60.70
2022-08-20T19:35:07.107Z,60.25
2022-08-20T19:37:51.693Z,60.18
2022-08-20T19:40:28.476Z,60.40
2022-08-20T19:43:07.352Z,60.16
2022-08-20T19:45:45.460Z,60.36
2022-08-20T19:48:42.946Z,60.28
2022-08-20T19:51:27.141Z,59.76
2022-08-20T19:54:01.860Z,59.48
2022-08-20T19:56:42.417Z,59.32
2022-08-20T19:59:22.919Z,58.19
2022-08-20T20:02:00.496Z,57.64
2022-08-20T20:04:41.171Z,57.56
2022-08-20T20:07:41.141Z,57.01
2022-08-20T20:10:29.436Z,56.81
2022-08-20T20:13:10.824Z,56.19
2022-08-20T20:15:46.253Z,55.67
2022-08-20T20:18:19.841Z,54.86
2022-08-20T20:20:58.213Z,54.23
2022-08-20T20:23:38.724Z,53.70
2022-08-20T20:26:21.315Z,53.47
2022-08-20T20:29:02.308Z,53.18
2022-08-20T20:31:49.696Z,52.64
2022-08-20T20:34:28.204Z,52.80
2022-08-20T20:37:06.617Z,52.29
2022-08-20T20:39:42.732Z,52.41
2022-08-20T20:42:29.732Z,52.44
2022-08-20T20:45:04.142Z,52.07
2022-08-20T20:47:39.208Z,51.93
2022-08-20T20:50:13.694Z,51.73
2022-08-20T20:52:51.440Z,52.03
2022-08-20T20:55:27.842Z,51.87
2022-08-20T20:58:02.547Z,51.57
2022-08-20T21:00:36.574Z,51.31
2022-08-20T21:03:11.697Z,51.11
2022-08-20T21:05:45.353Z,51.48
2022-08-20T21:08:19.953Z,51.37
2022-08-20T21:10:54.977Z,51.51
2022-08-20T21:13:28.614Z,51.42
2022-08-20T21:16:02.406Z,51.19
2022-08-20T21:18:38.176Z,51.26
2022-08-20T21:21:12.215Z,51.26
2022-08-20T21:23:45.816Z,51.26
2022-08-20T21:26:19.659Z,51.52
2022-08-20T21:28:53.344Z,51.37
2022-08-20T21:31:33.064Z,51.39
2022-08-20T21:34:08.207Z,51.93
2022-08-20T21:36:41.942Z,51.64
2022-08-20T21:39:15.721Z,51.97
2022-08-20T21:41:49.705Z,52.06
2022-08-20T21:44:25.533Z,51.98
2022-08-20T21:47:00.271Z,52.23
2022-08-20T21:49:35.741Z,52.60
2022-08-20T21:52:09.434Z,52.63
2022-08-20T21:54:43.218Z,52.49
2022-08-20T21:57:21.767Z,52.96
2022-08-20T21:59:56.221Z,53.01
2022-08-20T22:02:32.418Z,53.31
2022-08-20T22:05:09.448Z,53.87
2022-08-20T22:07:46.254Z,56.15
2022-08-20T22:10:25.903Z,58.37
2022-08-20T22:12:59.422Z,59.44
2022-08-20T22:15:33.296Z,60.42
2022-08-20T22:18:07.229Z,60.81
2022-08-20T22:20:42.861Z,61.35
2022-08-20T22:23:18.799Z,61.61
2022-08-20T22:25:57.111Z,62.11
2022-08-20T22:28:30.903Z,62.36
2022-08-20T22:31:05.684Z,62.55
2022-08-20T22:33:42.363Z,63.03
2022-08-20T22:36:17.610Z,63.34
2022-08-20T22:38:54.609Z,63.29
2022-08-20T22:41:31.647Z,63.22
2022-08-20T22:44:07.710Z,63.54
2022-08-20T22:46:48.230Z,63.49
2022-08-20T22:49:27.408Z,63.54
2022-08-20T22:52:09.998Z,63.28
2022-08-20T22:54:47.795Z,63.00
2022-08-20T22:57:22.381Z,63.13
2022-08-20T22:59:56.388Z,63.41
2022-08-20T23:02:29.916Z,63.14
2022-08-20T23:05:03.694Z,62.76
2022-08-20T23:07:41.759Z,63.00
2022-08-20T23:10:15.804Z,63.42
2022-08-20T23:12:49.555Z,63.28
2022-08-20T23:15:23.045Z,63.66
2022-08-20T23:18:02.179Z,63.43
2022-08-20T23:20:36.238Z,63.45
2022-08-20T23:23:12.327Z,63.43
2022-08-20T23:25:46.596Z,63.76
2022-08-20T23:28:22.521Z,63.34
2022-08-20T23:30:56.394Z,63.74
2022-08-20T23:33:31.529Z,63.21
2022-08-20T23:36:12.892Z,63.18
2022-08-20T23:38:48.463Z,63.37
2022-08-20T23:41:24.877Z,63.09
2022-08-20T23:44:01.138Z,62.81
2022-08-20T23:46:40.603Z,62.89
2022-08-20T23:49:15.781Z,62.74
2022-08-20T23:51:52.309Z,63.19
2022-08-20T23:54:27.746Z,63.30
2022-08-20T23:57:01.362Z,62.69
2022-08-20T23:59:43.976Z,62.86
